Time;durP1;ratioP1;P1;durP2;ratioP2;P2;SDS_P1;SDS_P2;PMS_P1;PMS_P2;Temp;Humidity;BMP_temperature;BMP_pressure;BME280_temperature;BME280_humidity;BME280_pressure;Samples;Min_cycle;Max_cycle;Signal;HPM_P1;HPM_P2
2023/09/07 00:02:06;;;;;;;5.70;3.92;;;;;;;26.70;49.96;102076.03;4986497;28;20430;-34
2023/09/07 00:04:33;;;;;;;4.65;3.67;;;;;;;26.69;50.25;102076.22;4985228;28;20130;-34
2023/09/07 00:06:59;;;;;;;4.10;3.50;;;;;;;26.66;49.98;102068.44;4985408;28;20126;-34
2023/09/07 00:09:27;;;;;;;5.63;3.97;;;;;;;26.66;50.12;102066.56;4985513;28;20035;-34
2023/09/07 00:11:54;;;;;;;4.53;3.50;;;;;;;26.64;50.28;102063.16;4986534;28;20061;-34
2023/09/07 00:14:20;;;;;;;5.13;3.50;;;;;;;26.64;50.33;102062.31;4984048;28;20051;-34
2023/09/07 00:16:47;;;;;;;6.15;4.50;;;;;;;26.63;50.32;102057.91;4981877;28;20267;-34
2023/09/07 00:19:14;;;;;;;5.75;3.78;;;;;;;26.61;50.19;102057.22;4983677;28;20434;-34
2023/09/07 00:21:40;;;;;;;4.45;3.65;;;;;;;26.58;50.48;102059.31;4981857;28;20351;-34
2023/09/07 00:24:07;;;;;;;6.00;3.65;;;;;;;26.57;50.55;102063.06;4985323;28;20058;-34
2023/09/07 00:26:33;;;;;;;4.15;3.53;;;;;;;26.55;50.42;102051.50;4984080;28;20104;-34
2023/09/07 00:29:00;;;;;;;5.18;3.65;;;;;;;26.54;50.27;102051.69;4982710;28;20046;-34
2023/09/07 00:31:27;;;;;;;5.22;3.63;;;;;;;26.54;50.54;102057.13;4985363;28;20093;-34
2023/09/07 00:33:54;;;;;;;4.53;3.33;;;;;;;26.51;50.44;102052.88;4980873;28;20344;-33
2023/09/07 00:36:20;;;;;;;3.92;3.10;;;;;;;26.50;50.49;102055.81;4978625;28;20055;-33
2023/09/07 00:38:47;;;;;;;5.13;3.42;;;;;;;26.48;50.36;102053.25;4982773;28;20066;-33
2023/09/07 00:41:14;;;;;;;4.50;3.10;;;;;;;26.46;50.39;102047.16;4983187;28;20100;-33
2023/09/07 00:43:40;;;;;;;4.50;3.20;;;;;;;26.45;50.51;102050.03;4984924;28;20055;-33
2023/09/07 00:46:08;;;;;;;4.72;3.67;;;;;;;26.45;50.60;102052.75;4984940;28;20046;-34
2023/09/07 00:48:35;;;;;;;4.80;3.53;;;;;;;26.42;50.51;102040.34;4986667;28;20466;-34
2023/09/07 00:51:02;;;;;;;5.28;3.70;;;;;;;26.42;50.38;102051.22;4984101;28;20065;-34
2023/09/07 00:53:29;;;;;;;5.35;3.45;;;;;;;26.41;50.44;102040.50;4985916;28;20046;-34
2023/09/07 00:55:57;;;;;;;5.05;3.30;;;;;;;26.40;50.65;102044.28;4984959;28;20442;-34
2023/09/07 00:58:24;;;;;;;5.18;3.65;;;;;;;26.40;50.44;102041.56;4985565;28;20054;-34
2023/09/07 01:00:51;;;;;;;5.05;3.60;;;;;;;26.39;50.54;102043.44;4984658;28;20050;-34
2023/09/07 01:03:17;;;;;;;5.05;3.78;;;;;;;26.36;50.53;102045.66;4985680;28;20054;-34
2023/09/07 01:06:00;;;;;;;4.93;3.53;;;;;;;26.34;50.55;102040.41;4983270;28;20137;-34
2023/09/07 01:08:31;;;;;;;3.85;3.00;;;;;;;26.33;50.63;102039.56;4982678;28;20047;-34
2023/09/07 01:10:59;;;;;;;6.45;3.45;;;;;;;26.33;50.71;102038.69;4981534;28;20053;-34
2023/09/07 01:13:25;;;;;;;4.30;3.22;;;;;;;26.32;50.73;102042.44;4980257;28;20046;-34
2023/09/07 01:15:52;;;;;;;4.18;3.13;;;;;;;26.29;51.13;102032.81;4981532;28;20050;-34
2023/09/07 01:18:19;;;;;;;4.22;3.28;;;;;;;26.29;50.96;102050.94;5012880;28;20113;-34
2023/09/07 01:20:52;;;;;;;4.40;3.40;;;;;;;26.26;50.97;102030.44;4984469;28;20050;-34
2023/09/07 01:23:20;;;;;;;4.10;3.15;;;;;;;26.24;50.96;102035.19;4980430;28;20057;-34
2023/09/07 01:25:47;;;;;;;5.13;3.83;;;;;;;26.23;51.03;102032.66;4983398;28;20061;-34
2023/09/07 01:28:15;;;;;;;4.90;3.63;;;;;;;26.22;50.85;102033.69;4983460;28;20150;-34
2023/09/07 01:30:41;;;;;;;4.40;3.47;;;;;;;26.19;50.90;102034.03;4986204;28;20054;-34
2023/09/07 01:33:08;;;;;;;3.58;2.95;;;;;;;26.18;51.09;102038.66;4984839;28;20592;-34
2023/09/07 01:35:36;;;;;;;4.97;3.85;;;;;;;26.17;51.09;102036.97;4985113;28;20046;-34
2023/09/07 01:38:03;;;;;;;4.75;3.33;;;;;;;26.15;50.79;102035.44;4985478;28;20527;-34
2023/09/07 01:40:30;;;;;;;3.72;2.85;;;;;;;26.13;51.18;102032.03;4980447;28;20055;-34
2023/09/07 01:42:56;;;;;;;6.22;4.05;;;;;;;26.12;51.24;102030.34;4981313;28;20059;-34
2023/09/07 01:45:23;;;;;;;4.07;2.97;;;;;;;26.09;51.19;102026.97;4986816;28;20104;-34
2023/09/07 01:47:51;;;;;;;4.25;3.22;;;;;;;26.08;51.19;102029.84;4983545;28;20478;-34
2023/09/07 01:50:18;;;;;;;5.38;3.05;;;;;;;26.06;51.31;102029.19;4985030;28;20496;-34
2023/09/07 01:52:50;;;;;;;3.95;3.00;;;;;;;26.04;51.34;102033.94;4982591;28;20422;-34
2023/09/07 01:55:17;;;;;;;3.73;3.00;;;;;;;26.03;51.37;102034.97;4982250;28;20104;-34
2023/09/07 01:57:44;;;;;;;3.83;2.60;;;;;;;26.01;51.21;102028.88;4983495;28;20446;-34
2023/09/07 02:00:12;;;;;;;3.97;3.03;;;;;;;25.98;51.36;102030.09;4979835;28;20054;-34
2023/09/07 02:02:38;;;;;;;4.28;3.22;;;;;;;25.98;51.28;102026.53;4980695;28;20515;-34
2023/09/07 02:05:05;;;;;;;4.32;3.25;;;;;;;25.96;51.33;102025.84;4982579;28;20125;-34
2023/09/07 02:07:32;;;;;;;3.30;2.88;;;;;;;25.95;51.46;102038.59;4987814;28;20042;-34
2023/09/07 02:09:59;;;;;;;4.20;3.03;;;;;;;25.93;51.46;102027.06;4977239;28;20434;-34
2023/09/07 02:12:25;;;;;;;3.97;3.03;;;;;;;25.93;51.74;102034.34;4980582;28;20291;-34
2023/09/07 02:14:52;;;;;;;5.13;3.10;;;;;;;25.91;51.55;102033.69;4979430;28;20047;-34
2023/09/07 02:17:18;;;;;;;3.45;2.80;;;;;;;25.90;51.41;102029.28;4984442;28;20109;-34
2023/09/07 02:19:45;;;;;;;3.20;2.80;;;;;;;25.89;51.76;102042.03;4980728;28;20054;-34
2023/09/07 02:22:12;;;;;;;4.28;3.08;;;;;;;25.88;51.74;102043.03;4977434;28;20513;-34
2023/09/07 02:24:39;;;;;;;3.75;3.05;;;;;;;25.87;51.65;102035.91;4979878;28;20141;-34
2023/09/07 02:27:05;;;;;;;4.00;3.10;;;;;;;25.88;51.68;102037.59;4981514;28;20118;-34
2023/09/07 02:29:32;;;;;;;4.13;2.97;;;;;;;25.88;51.58;102039.47;4982996;28;20050;-34
2023/09/07 02:31:58;;;;;;;3.55;2.53;;;;;;;25.88;51.60;102042.19;4983805;28;20060;-34
2023/09/07 02:34:25;;;;;;;3.80;3.08;;;;;;;25.86;51.61;102036.94;4982101;28;20132;-34
2023/09/07 02:36:51;;;;;;;4.28;3.13;;;;;;;25.84;51.80;102034.38;4986918;28;20100;-34
2023/09/07 02:39:18;;;;;;;3.72;2.92;;;;;;;25.84;51.63;102034.38;4982243;28;20046;-34
2023/09/07 02:41:46;;;;;;;4.18;3.30;;;;;;;25.84;51.75;102033.53;4984272;28;20108;-34
2023/09/07 02:44:12;;;;;;;4.35;3.25;;;;;;;25.83;51.56;102032.69;4981839;28;20138;-34
2023/09/07 02:46:39;;;;;;;3.03;2.63;;;;;;;25.83;51.77;102035.41;4983850;28;20038;-34
2023/09/07 02:49:06;;;;;;;3.30;2.63;;;;;;;25.83;51.51;102035.41;4984378;28;20070;-34
2023/09/07 02:51:32;;;;;;;4.22;3.15;;;;;;;25.83;51.63;102035.41;4984225;28;20077;-34
2023/09/07 02:54:01;;;;;;;3.40;2.63;;;;;;;25.83;51.84;102035.41;4982442;28;20575;-34
2023/09/07 02:56:28;;;;;;;3.20;2.58;;;;;;;25.82;51.61;102030.16;4981010;28;20442;-34
2023/09/07 02:58:54;;;;;;;3.45;2.67;;;;;;;25.82;51.60;102038.31;4984049;28;20431;-34
2023/09/07 03:01:22;;;;;;;4.40;3.22;;;;;;;25.82;51.55;102035.59;4987217;28;20055;-34
2023/09/07 03:03:48;;;;;;;4.13;2.95;;;;;;;25.82;51.65;102035.59;4984086;28;20096;-34
2023/09/07 03:06:16;;;;;;;4.43;2.97;;;;;;;25.81;51.69;102034.75;4986096;28;20338;-34
2023/09/07 03:08:43;;;;;;;4.20;2.58;;;;;;;25.80;51.49;102038.47;4987046;28;20645;-34
2023/09/07 03:11:10;;;;;;;3.15;2.45;;;;;;;25.81;51.62;102042.91;4983571;28;20134;-34
2023/09/07 03:13:37;;;;;;;3.38;2.97;;;;;;;25.81;51.77;102047.50;4985237;28;20050;-34
2023/09/07 03:16:04;;;;;;;3.65;2.75;;;;;;;25.80;51.68;102043.06;4981838;28;20113;-34
2023/09/07 03:18:31;;;;;;;7.90;2.75;;;;;;;25.79;51.70;102036.78;4986632;28;20054;-34
2023/09/07 03:21:01;;;;;;;3.55;2.92;;;;;;;25.77;51.81;102038.84;4983437;28;20050;-34
2023/09/07 03:23:32;;;;;;;4.78;2.80;;;;;;;25.77;51.67;102037.94;4981087;28;20449;-34
2023/09/07 03:25:59;;;;;;;3.95;2.95;;;;;;;25.77;51.67;102037.94;4985582;28;20054;-34
2023/09/07 03:28:26;;;;;;;3.80;2.80;;;;;;;25.75;51.74;102043.56;4985025;28;20447;-34
2023/09/07 03:30:55;;;;;;;2.83;2.38;;;;;;;25.74;51.74;102028.31;4987908;28;20082;-34
2023/09/07 03:33:22;;;;;;;3.95;2.78;;;;;;;25.73;51.54;102029.34;4986438;28;20050;-34
2023/09/07 03:35:49;;;;;;;2.83;2.17;;;;;;;25.73;51.57;102032.03;4987528;28;20046;-34
2023/09/07 03:38:15;;;;;;;4.35;2.78;;;;;;;25.72;51.75;102029.50;4983494;28;20792;-34
2023/09/07 03:40:42;;;;;;;3.13;2.45;;;;;;;25.71;51.55;102034.06;4985864;28;20498;-34
2023/09/07 03:43:09;;;;;;;4.40;2.90;;;;;;;25.71;51.69;102033.22;4986222;28;20082;-34
2023/09/07 03:45:36;;;;;;;3.08;2.47;;;;;;;25.70;51.86;102026.13;4983876;28;20362;-34
2023/09/07 03:48:03;;;;;;;3.28;2.60;;;;;;;25.69;51.88;102032.53;4985517;28;20062;-34
2023/09/07 03:50:29;;;;;;;3.22;2.25;;;;;;;25.67;51.60;102026.47;4985269;28;20354;-34
2023/09/07 03:52:56;;;;;;;3.83;2.80;;;;;;;25.66;51.78;102024.78;4984999;28;21012;-34
2023/09/07 03:55:23;;;;;;;3.38;2.75;;;;;;;25.66;51.68;102032.91;4985607;28;20057;-34
2023/09/07 03:57:50;;;;;;;3.38;2.50;;;;;;;25.65;51.85;102025.78;4984483;28;20042;-34
2023/09/07 04:00:17;;;;;;;3.67;2.63;;;;;;;25.64;51.75;102027.66;4982779;28;20101;-34
2023/09/07 04:02:44;;;;;;;2.80;2.33;;;;;;;25.63;51.83;102034.09;4985478;28;20051;-34
2023/09/07 04:05:11;;;;;;;3.30;2.42;;;;;;;25.64;51.65;102034.94;4989282;28;20526;-35
2023/09/07 04:07:38;;;;;;;5.20;2.92;;;;;;;25.62;51.67;102034.28;4981312;28;20074;-34
2023/09/07 04:10:05;;;;;;;8.57;2.85;;;;;;;25.61;51.82;102033.44;4986389;28;20460;-34
2023/09/07 04:12:33;;;;;;;4.47;3.15;;;;;;;25.61;51.91;102038.88;4984985;28;20522;-34
2023/09/07 04:15:03;;;;;;;3.65;2.60;;;;;;;25.61;51.99;102036.16;4985090;28;20077;-34
2023/09/07 04:17:32;;;;;;;3.10;2.60;;;;;;;25.60;51.79;102035.28;4983512;28;20074;-34
2023/09/07 04:19:59;;;;;;;5.47;2.95;;;;;;;25.60;51.95;102031.75;4986222;28;20125;-34
2023/09/07 04:22:25;;;;;;;3.50;2.45;;;;;;;25.59;51.98;102032.75;4979515;28;20047;-34
2023/09/07 04:24:52;;;;;;;3.08;2.40;;;;;;;25.57;52.24;102030.25;4983527;28;20051;-34
2023/09/07 04:27:18;;;;;;;3.80;2.90;;;;;;;25.58;52.08;102028.38;4983618;28;20133;-34
2023/09/07 04:29:45;;;;;;;4.10;2.65;;;;;;;25.56;51.96;102025.81;4980325;28;20060;-34
2023/09/07 04:32:12;;;;;;;3.28;2.58;;;;;;;25.55;51.90;102029.56;4982854;28;20077;-34
2023/09/07 04:34:38;;;;;;;3.85;2.40;;;;;;;25.54;51.68;102019.72;4982468;28;20050;-34
2023/09/07 04:37:05;;;;;;;3.47;2.70;;;;;;;25.53;52.08;102025.34;4980508;28;20046;-34
2023/09/07 04:39:32;;;;;;;4.68;2.78;;;;;;;25.52;51.80;102027.19;4987372;28;20129;-34
2023/09/07 04:41:58;;;;;;;3.53;2.67;;;;;;;25.50;52.00;102031.09;4992475;28;20059;-34
2023/09/07 04:44:27;;;;;;;3.70;2.92;;;;;;;25.50;51.88;102036.53;4985127;28;20046;-34
2023/09/07 04:46:56;;;;;;;4.38;2.85;;;;;;;25.49;51.89;102027.56;4983957;28;20625;-34
2023/09/07 04:49:24;;;;;;;2.78;2.25;;;;;;;25.49;51.82;102041.13;4984619;28;20046;-34
2023/09/07 04:51:53;;;;;;;3.53;2.55;;;;;;;25.49;51.86;102040.28;4986967;28;20096;-34
2023/09/07 04:54:20;;;;;;;3.58;2.40;;;;;;;25.48;52.07;102041.28;4984828;28;20043;-34
2023/09/07 04:56:47;;;;;;;3.50;2.72;;;;;;;25.49;52.13;102043.84;4982569;28;20502;-34
2023/09/07 04:59:14;;;;;;;3.38;2.80;;;;;;;25.48;51.80;102044.84;4980368;28;20042;-34
2023/09/07 05:01:41;;;;;;;3.53;2.55;;;;;;;25.48;51.71;102049.41;4979880;28;20139;-34
2023/09/07 05:04:07;;;;;;;3.10;2.17;;;;;;;25.48;51.79;102049.41;4983082;28;20050;-34
2023/09/07 05:06:37;;;;;;;4.38;2.67;;;;;;;25.46;51.87;102041.47;4978513;28;20450;-34
2023/09/07 05:09:04;;;;;;;4.03;2.90;;;;;;;25.46;51.93;102051.47;4978454;28;20081;-34
2023/09/07 05:11:30;;;;;;;4.10;3.10;;;;;;;25.46;52.08;102052.31;4986407;28;20050;-34
2023/09/07 05:13:57;;;;;;;2.83;2.53;;;;;;;25.46;51.98;102048.75;4983784;28;20090;-34
2023/09/07 05:16:23;;;;;;;3.13;2.30;;;;;;;25.45;52.02;102049.75;4982953;28;20047;-34
2023/09/07 05:18:50;;;;;;;3.10;2.38;;;;;;;25.46;51.67;102052.31;4980653;28;20141;-34
2023/09/07 05:21:17;;;;;;;4.03;2.50;;;;;;;25.46;52.06;102060.47;4980917;28;20073;-34
2023/09/07 05:23:43;;;;;;;3.38;2.88;;;;;;;25.46;52.18;102057.75;4985159;28;20072;-34
2023/09/07 05:26:10;;;;;;;4.13;2.67;;;;;;;25.46;51.98;102062.34;4986336;28;20050;-34
2023/09/07 05:28:37;;;;;;;4.28;2.70;;;;;;;25.46;51.87;102063.19;4981881;28;20046;-34
2023/09/07 05:31:03;;;;;;;3.28;2.38;;;;;;;25.47;51.76;102059.44;4981949;28;20113;-34
2023/09/07 05:33:30;;;;;;;3.50;2.60;;;;;;;25.48;51.92;102068.44;4981213;28;20050;-34
2023/09/07 05:35:57;;;;;;;3.65;2.53;;;;;;;25.49;51.73;102060.13;4981324;28;20058;-34
2023/09/07 05:38:23;;;;;;;3.25;2.40;;;;;;;25.49;51.73;102062.84;4980148;28;20078;-34
2023/09/07 05:40:53;;;;;;;3.78;2.20;;;;;;;25.49;51.77;102068.28;4982078;28;20319;-34
2023/09/07 05:43:21;;;;;;;5.03;2.45;;;;;;;25.47;51.58;102064.88;4987936;28;20089;-34
2023/09/07 05:45:47;;;;;;;3.47;2.35;;;;;;;25.48;51.51;102069.28;4983717;28;20054;-34
2023/09/07 05:48:17;;;;;;;4.00;2.45;;;;;;;25.48;51.72;102073.84;4982731;28;20078;-34
2023/09/07 05:50:45;;;;;;;3.22;2.22;;;;;;;25.46;51.89;102068.63;4980863;28;20081;-34
2023/09/07 05:53:11;;;;;;;3.50;2.53;;;;;;;25.48;51.62;102074.69;4978504;28;20422;-34
2023/09/07 05:55:38;;;;;;;4.00;2.20;;;;;;;25.47;51.63;102080.31;4980680;28;20121;-34
2023/09/07 05:58:06;;;;;;;2.97;2.22;;;;;;;25.46;51.59;102073.19;4982410;28;20054;-34
2023/09/07 06:00:38;;;;;;;2.72;2.22;;;;;;;25.44;51.79;102070.63;4982339;28;20097;-34
2023/09/07 06:03:06;;;;;;;3.38;2.50;;;;;;;25.46;51.92;102067.78;4977910;28;20096;-34
2023/09/07 06:05:36;;;;;;;3.60;2.58;;;;;;;25.45;51.94;102068.75;4985484;28;20050;-35
2023/09/07 06:08:03;;;;;;;3.35;2.08;;;;;;;25.46;52.00;102073.19;4983662;28;20047;-34
2023/09/07 06:10:30;;;;;;;2.85;2.50;;;;;;;25.45;51.69;102076.91;4979448;28;20453;-34
2023/09/07 06:12:58;;;;;;;3.50;2.30;;;;;;;25.46;51.69;102082.19;4980656;28;20058;-34
2023/09/07 06:15:27;;;;;;;3.70;2.50;;;;;;;25.48;51.87;102082.00;4983696;28;20068;-34
2023/09/07 06:17:54;;;;;;;2.38;2.08;;;;;;;25.49;51.74;102087.28;5016018;28;20050;-34
2023/09/07 06:20:21;;;;;;;3.42;2.13;;;;;;;25.52;51.91;102096.91;4984676;28;20074;-34
2023/09/07 06:22:49;;;;;;;3.42;2.65;;;;;;;25.52;52.11;102095.06;4980625;28;20082;-34
2023/09/07 06:25:15;;;;;;;4.40;2.33;;;;;;;25.55;51.60;102097.44;4981562;28;20049;-34
2023/09/07 06:27:43;;;;;;;3.00;2.65;;;;;;;25.56;51.60;102101.81;4978526;28;20077;-34
2023/09/07 06:30:10;;;;;;;4.72;2.63;;;;;;;25.58;51.81;102097.09;4981126;28;20323;-34
2023/09/07 06:32:36;;;;;;;2.92;2.10;;;;;;;25.62;51.41;102094.03;4980225;28;20074;-34
2023/09/07 06:35:04;;;;;;;3.25;2.67;;;;;;;25.64;51.60;102097.41;4983163;28;20444;-34
2023/09/07 06:37:30;;;;;;;4.13;2.53;;;;;;;25.65;51.47;102101.81;4986741;28;20053;-34
2023/09/07 06:39:57;;;;;;;2.90;2.60;;;;;;;25.67;51.46;102107.94;4981416;28;20043;-34
2023/09/07 06:42:24;;;;;;;3.80;2.58;;;;;;;25.68;51.26;102109.63;4984501;28;20046;-34
2023/09/07 06:44:52;;;;;;;3.53;2.53;;;;;;;25.70;51.01;102113.03;4982904;28;20057;-34
2023/09/07 06:47:18;;;;;;;2.92;2.28;;;;;;;25.70;51.08;102113.88;5016438;28;20087;-34
2023/09/07 06:49:45;;;;;;;2.88;2.30;;;;;;;25.71;50.96;102107.41;4983856;28;20163;-34
2023/09/07 06:52:11;;;;;;;2.75;2.10;;;;;;;25.71;50.97;102101.97;4987511;28;20062;-34
2023/09/07 06:54:38;;;;;;;2.30;1.90;;;;;;;25.71;50.91;102104.69;4985479;28;20050;-34
2023/09/07 06:57:11;;;;;;;4.15;2.70;;;;;;;25.71;50.92;102109.28;4979113;28;20050;-34
2023/09/07 06:59:37;;;;;;;2.88;1.80;;;;;;;25.71;51.09;102110.13;4982629;28;20096;-34
2023/09/07 07:02:05;;;;;;;2.90;2.40;;;;;;;25.72;51.03;102106.38;4985420;28;20051;-34
2023/09/07 07:04:32;;;;;;;3.50;2.30;;;;;;;25.72;51.24;102102.81;4983909;28;20441;-34
2023/09/07 07:07:01;;;;;;;3.67;1.98;;;;;;;25.72;51.20;102109.09;4984265;28;20414;-34
2023/09/07 07:09:28;;;;;;;3.05;2.13;;;;;;;25.73;50.93;102107.22;4981429;28;20057;-34
2023/09/07 07:11:55;;;;;;;2.40;2.13;;;;;;;25.74;50.93;102108.94;4984867;28;20122;-34
2023/09/07 07:14:21;;;;;;;3.15;2.30;;;;;;;25.73;51.02;102112.66;4988203;28;20078;-34
2023/09/07 07:16:48;;;;;;;3.38;2.13;;;;;;;25.74;50.95;102108.94;4985495;28;20134;-34
2023/09/07 07:19:15;;;;;;;3.78;2.25;;;;;;;25.73;50.96;102109.94;4986959;28;20054;-34
2023/09/07 07:21:41;;;;;;;3.25;2.45;;;;;;;25.74;50.88;102114.38;4985496;28;20128;-34
2023/09/07 07:24:08;;;;;;;3.58;2.70;;;;;;;25.74;51.01;102108.94;4986261;28;20353;-34
2023/09/07 07:26:35;;;;;;;3.92;2.95;;;;;;;25.74;51.13;102108.94;4984136;28;20050;-34
2023/09/07 07:29:05;;;;;;;2.30;2.10;;;;;;;25.74;50.88;102109.78;4985008;28;20133;-34
2023/09/07 07:31:31;;;;;;;2.60;1.98;;;;;;;25.75;50.72;102111.47;4983202;28;20119;-34
2023/09/07 07:33:58;;;;;;;3.13;2.15;;;;;;;25.75;50.92;102108.75;4980571;28;20046;-34
2023/09/07 07:36:25;;;;;;;3.42;2.60;;;;;;;25.75;50.99;102106.03;4984900;28;20051;-34
2023/09/07 07:38:51;;;;;;;2.97;2.13;;;;;;;25.76;51.03;102113.16;4980502;28;20435;-34
2023/09/07 07:41:18;;;;;;;3.10;2.10;;;;;;;25.77;51.11;102108.56;5016325;28;20046;-34
2023/09/07 07:43:44;;;;;;;4.45;2.47;;;;;;;25.78;50.77;102104.88;4982745;28;20363;-34
2023/09/07 07:46:11;;;;;;;3.90;2.60;;;;;;;25.78;50.62;102103.00;5021262;28;20069;-34
2023/09/07 07:48:38;;;;;;;4.28;2.13;;;;;;;25.80;50.78;102102.81;4982651;28;20160;-34
2023/09/07 07:51:05;;;;;;;2.78;2.10;;;;;;;25.80;50.92;102103.66;4985963;28;20043;-34
2023/09/07 07:53:35;;;;;;;3.25;2.35;;;;;;;25.81;50.83;102099.94;4982737;28;20043;-34
2023/09/07 07:56:03;;;;;;;5.22;2.38;;;;;;;25.82;50.87;102092.66;5015841;28;20053;-34
2023/09/07 07:58:30;;;;;;;3.53;2.28;;;;;;;25.83;50.68;102094.31;4989433;28;20051;-34
2023/09/07 08:00:58;;;;;;;2.80;2.50;;;;;;;25.83;51.03;102083.47;5014150;28;20419;-34
2023/09/07 08:03:25;;;;;;;4.13;2.40;;;;;;;25.84;50.84;102082.44;5013001;28;20054;-34
2023/09/07 08:05:52;;;;;;;3.03;2.20;;;;;;;25.83;50.83;102087.03;4979987;28;20338;-33
2023/09/07 08:08:18;;;;;;;2.75;2.08;;;;;;;25.86;50.59;102085.00;4986382;28;20054;-33
2023/09/07 08:10:45;;;;;;;3.47;2.20;;;;;;;25.87;50.65;102083.97;4982837;28;20050;-33
2023/09/07 08:13:13;;;;;;;5.03;2.40;;;;;;;25.88;50.77;102082.94;4983557;28;20049;-33
2023/09/07 08:15:40;;;;;;;4.13;2.30;;;;;;;25.88;50.68;102078.34;4983127;28;20133;-33
2023/09/07 08:18:08;;;;;;;4.25;2.40;;;;;;;25.89;50.72;102071.03;4986697;28;20050;-33
2023/09/07 08:20:36;;;;;;;3.22;2.13;;;;;;;25.90;50.60;102073.59;4983418;28;20043;-35
2023/09/07 08:23:07;;;;;;;3.50;2.40;;;;;;;25.91;50.98;102067.13;4982570;28;20458;-35
2023/09/07 08:25:34;;;;;;;3.22;2.20;;;;;;;25.92;50.57;102067.97;4980690;28;20047;-34
2023/09/07 08:28:05;;;;;;;4.57;2.50;;;;;;;25.93;50.75;102069.66;4984428;28;20113;-34
2023/09/07 08:30:33;;;;;;;5.50;2.25;;;;;;;25.93;50.53;102067.81;4980989;28;20474;-34
2023/09/07 08:33:02;;;;;;;4.07;2.33;;;;;;;25.94;50.63;102061.34;4988227;28;20050;-34
2023/09/07 08:35:30;;;;;;;5.43;2.58;;;;;;;25.96;50.66;102061.16;4979609;28;20054;-34
2023/09/07 08:37:58;;;;;;;4.57;2.30;;;;;;;25.96;50.67;102056.56;4977535;28;20047;-34
2023/09/07 08:40:27;;;;;;;3.28;2.55;;;;;;;25.97;50.61;102051.97;5009396;28;20567;-34
2023/09/07 08:42:54;;;;;;;4.22;2.40;;;;;;;25.98;50.77;102056.41;4980076;28;20142;-35
2023/09/07 08:45:26;;;;;;;3.80;2.35;;;;;;;25.98;50.51;102051.81;4980651;28;20051;-35
2023/09/07 08:47:54;;;;;;;10.65;2.70;;;;;;;25.99;50.55;102048.06;4986552;28;20050;-35
2023/09/07 08:50:23;;;;;;;4.28;2.33;;;;;;;26.01;50.50;102048.75;4985814;28;20050;-34
2023/09/07 08:52:52;;;;;;;5.22;2.47;;;;;;;26.02;50.34;102052.31;4989949;28;20097;-34
2023/09/07 08:55:21;;;;;;;5.82;2.45;;;;;;;26.02;50.33;102047.72;4984341;28;20053;-33
2023/09/07 08:57:48;;;;;;;7.68;3.03;;;;;;;26.04;50.49;102050.25;4983284;28;20105;-33
2023/09/07 09:00:16;;;;;;;5.50;2.40;;;;;;;26.04;50.52;102045.66;4977558;28;20054;-33
2023/09/07 09:02:46;;;;;;;6.55;2.75;;;;;;;26.06;50.33;102051.78;4983508;28;20113;-33
2023/09/07 09:05:23;;;;;;;6.32;2.60;;;;;;;26.07;50.50;102050.75;5013187;28;20053;-33
2023/09/07 09:08:00;;;;;;;4.10;2.58;;;;;;;26.07;50.40;102047.19;4979971;28;20089;-34
2023/09/07 09:10:27;;;;;;;5.45;2.90;;;;;;;26.11;50.38;102055.84;4985103;28;20047;-33
2023/09/07 09:12:54;;;;;;;4.97;2.88;;;;;;;26.12;50.44;102043.94;4983135;28;20086;-33
2023/09/07 09:15:21;;;;;;;4.45;3.08;;;;;;;26.12;50.30;102044.78;4981340;28;20046;-34
2023/09/07 09:17:48;;;;;;;5.03;2.80;;;;;;;26.14;50.44;102044.63;4980271;28;20058;-33
2023/09/07 09:20:25;;;;;;;4.72;2.78;;;;;;;26.15;50.40;102051.75;4982272;28;20038;-34
2023/09/07 09:22:53;;;;;;;5.00;2.72;;;;;;;26.19;50.45;102050.34;4983256;28;20082;-34
2023/09/07 09:25:21;;;;;;;4.80;2.75;;;;;;;26.19;50.21;102048.47;4984364;28;20051;-34
2023/09/07 09:27:48;;;;;;;4.50;2.83;;;;;;;26.22;50.45;102041.84;4985279;28;20468;-34
2023/09/07 09:30:16;;;;;;;5.93;2.90;;;;;;;26.23;50.39;102043.53;4981122;28;20174;-34
2023/09/07 09:32:43;;;;;;;6.13;3.40;;;;;;;26.26;50.47;102041.31;4980156;28;20435;-34
2023/09/07 09:35:10;;;;;;;7.15;2.85;;;;;;;26.29;50.52;102037.38;4987409;28;20057;-34
2023/09/07 09:37:44;;;;;;;3.80;2.53;;;;;;;26.32;50.55;102042.44;4982582;28;20053;-34
2023/09/07 09:40:13;;;;;;;6.25;2.63;;;;;;;26.38;50.73;102041.75;4982341;28;20054;-34
2023/09/07 09:42:43;;;;;;;3.92;2.80;;;;;;;26.42;50.75;102039.50;4982136;28;21749;-34
2023/09/07 09:45:12;;;;;;;5.35;2.72;;;;;;;26.47;50.49;102040.69;4979657;28;20078;-34
2023/09/07 09:47:41;;;;;;;6.63;2.88;;;;;;;26.54;50.81;102041.66;4979387;28;21631;-34
2023/09/07 09:50:09;;;;;;;6.57;3.40;;;;;;;26.61;50.86;102040.91;4982284;28;20058;-34
2023/09/07 09:52:38;;;;;;;4.40;2.90;;;;;;;26.67;50.82;102038.31;4979075;28;20051;-34
2023/09/07 09:55:12;;;;;;;6.05;2.78;;;;;;;26.74;50.31;102033.00;5015298;28;20051;-34
2023/09/07 09:57:39;;;;;;;4.28;3.10;;;;;;;26.80;50.71;102029.53;4987953;28;20050;-34
2023/09/07 10:00:25;;;;;;;4.10;2.58;;;;;;;26.86;50.66;102033.44;4983141;28;20078;-34
2023/09/07 10:03:07;;;;;;;6.68;2.83;;;;;;;26.92;50.54;102036.22;4981265;28;20043;-34
2023/09/07 10:05:34;;;;;;;4.32;2.80;;;;;;;26.99;50.42;102022.75;4981801;28;20058;-34
2023/09/07 10:08:06;;;;;;;5.13;3.08;;;;;;;27.05;49.94;102027.44;4976686;28;20174;-34
2023/09/07 10:10:36;;;;;;;5.80;2.63;;;;;;;27.11;50.30;102028.63;4982457;28;20042;-34
2023/09/07 10:13:04;;;;;;;4.50;2.50;;;;;;;27.16;50.39;102024.28;4982465;28;20059;-34
2023/09/07 10:15:32;;;;;;;4.60;2.67;;;;;;;27.22;50.44;102028.16;4981055;28;20112;-34
2023/09/07 10:18:15;;;;;;;4.05;2.50;;;;;;;27.27;50.05;102029.28;4983048;28;20089;-34
2023/09/07 10:20:58;;;;;;;4.85;2.58;;;;;;;27.31;49.75;102022.44;4983687;28;20038;-34
2023/09/07 10:23:41;;;;;;;7.53;2.83;;;;;;;27.39;49.32;102020.66;4983262;28;20254;-34
2023/09/07 10:26:13;;;;;;;4.05;2.72;;;;;;;27.44;49.19;102018.22;4982946;28;20058;-34
2023/09/07 10:28:40;;;;;;;3.97;2.70;;;;;;;27.48;49.36;102016.81;4986702;28;20244;-35
2023/09/07 10:31:25;;;;;;;3.22;2.15;;;;;;;27.53;49.46;102011.63;4982347;28;20051;-34
2023/09/07 10:34:12;;;;;;;4.35;2.47;;;;;;;27.59;49.71;102012.78;4982910;28;20053;-34
2023/09/07 10:36:39;;;;;;;5.00;2.92;;;;;;;27.64;49.47;102018.50;4985001;28;20097;-35
2023/09/07 10:39:06;;;;;;;5.38;2.28;;;;;;;27.67;49.37;102016.22;4975138;28;20113;-35
2023/09/07 10:41:43;;;;;;;5.63;2.55;;;;;;;27.71;49.18;102016.69;4976491;28;20043;-35
2023/09/07 10:44:13;;;;;;;3.80;2.70;;;;;;;27.76;49.11;102014.28;4979216;28;20552;-34
2023/09/07 10:46:40;;;;;;;4.63;2.45;;;;;;;27.80;49.12;102015.59;4980659;28;20057;-35
2023/09/07 10:49:11;;;;;;;3.15;2.40;;;;;;;27.85;48.90;102020.47;4978587;28;20059;-35
2023/09/07 10:51:46;;;;;;;3.92;2.15;;;;;;;27.86;48.85;102003.94;4982030;28;20694;-35
2023/09/07 10:54:23;;;;;;;4.22;2.40;;;;;;;27.91;49.08;102008.81;4976751;28;20517;-34
2023/09/07 10:56:50;;;;;;;4.13;2.55;;;;;;;27.94;49.26;102012.00;4983721;28;20426;-35
2023/09/07 10:59:17;;;;;;;3.97;2.35;;;;;;;27.97;48.90;102006.16;4983012;28;20045;-35
2023/09/07 11:01:45;;;;;;;5.18;2.35;;;;;;;27.99;48.25;102005.97;4992101;28;20124;-35
2023/09/07 11:04:12;;;;;;;2.88;2.13;;;;;;;28.01;47.97;102010.16;5016186;28;20124;-35
2023/09/07 11:06:40;;;;;;;4.45;2.33;;;;;;;28.02;48.06;102000.09;4987079;28;20086;-35
2023/09/07 11:09:10;;;;;;;2.80;2.10;;;;;;;28.01;48.47;102002.00;4981189;28;20082;-35
2023/09/07 11:11:38;;;;;;;3.15;2.08;;;;;;;28.01;48.64;101996.53;4982501;28;20077;-35
2023/09/07 11:14:05;;;;;;;4.22;2.20;;;;;;;28.00;48.36;101997.59;4982909;28;20058;-35
2023/09/07 11:16:35;;;;;;;3.00;2.13;;;;;;;27.99;48.12;101993.19;4983533;28;20113;-35
2023/09/07 11:19:06;;;;;;;3.95;2.40;;;;;;;27.98;48.55;101986.06;4983069;28;20125;-35
2023/09/07 11:21:35;;;;;;;3.47;2.13;;;;;;;27.98;47.68;101985.19;4987799;28;20098;-35
2023/09/07 11:24:05;;;;;;;5.07;2.30;;;;;;;27.97;48.53;101981.63;4987391;28;20512;-35
2023/09/07 11:26:45;;;;;;;3.55;2.28;;;;;;;27.98;47.82;101985.19;4981439;28;20134;-35
2023/09/07 11:29:16;;;;;;;3.20;2.17;;;;;;;27.99;47.85;101978.72;4983341;28;20096;-35